Terminal Aerodrome Forecast
Issued by NWS

Home | Current Version | Previous Version | Graphics & Text | Print | Product List | Glossary On
Versions: 1 2 3 4 5 6 7 8 9 10 11 12 13 14 15 16 17 18
000
FTUS43 KTOP 301123
TAFFOE
TAF
KFOE 301123Z 3012/0112 10011KT 4SM -SHRA OVC002
     FM301300 15009KT 5SM BR BKN004
     FM301600 22011KT P6SM SCT005 OVC012
     FM302100 27009KT P6SM SCT025 BKN040
     FM010600 27010KT P6SM SCT004 BKN012=

USA.gov is the U.S. government's official web portal to all federal, state and local government web resources and services.